Time;durP1;ratioP1;P1;durP2;ratioP2;P2;SDS_P1;SDS_P2;PMS_P1;PMS_P2;Temp;Humidity;BMP_temperature;BMP_pressure;BME280_temperature;BME280_humidity;BME280_pressure;Samples;Min_cycle;Max_cycle;Signal;HPM_P1;HPM_P2
2021/01/29 00:00:12;;;;;;;4.97;2.63;;;-3275.80;88.80;;;;;;5027981;28;20029;-66
2021/01/29 00:02:38;;;;;;;6.55;2.22;;;-3275.80;88.70;;;;;;5026662;28;20398;-66
2021/01/29 00:05:06;;;;;;;4.57;2.35;;;-3275.80;88.50;;;;;;5021954;28;20038;-66
2021/01/29 00:07:31;;;;;;;7.07;2.22;;;-3275.90;88.30;;;;;;5026415;28;20045;-67
2021/01/29 00:09:57;;;;;;;9.82;2.45;;;-3275.90;88.60;;;;;;5025487;28;20063;-66
2021/01/29 00:12:23;;;;;;;5.68;2.30;;;-3275.90;88.60;;;;;;5028089;28;20025;-66
2021/01/29 00:14:49;;;;;;;3.30;2.00;;;-3275.90;88.60;;;;;;5028924;28;20025;-67
2021/01/29 00:17:16;;;;;;;5.20;2.30;;;-3275.90;88.60;;;;;;5029700;28;20031;-66
2021/01/29 00:19:42;;;;;;;6.32;2.33;;;-3275.90;88.40;;;;;;5031682;28;20038;-66
2021/01/29 00:22:08;;;;;;;7.68;2.53;;;-3275.90;88.50;;;;;;5027424;28;20026;-66
2021/01/29 00:24:34;;;;;;;4.20;2.10;;;-3275.90;88.20;;;;;;5024996;28;20132;-67
2021/01/29 00:27:00;;;;;;;4.93;2.30;;;-3275.90;88.10;;;;;;5029273;28;20105;-66
2021/01/29 00:29:25;;;;;;;5.18;2.20;;;-3275.90;88.40;;;;;;5030867;28;20030;-66
2021/01/29 00:31:51;;;;;;;9.55;2.30;;;-3276.00;88.30;;;;;;5028642;28;20091;-67
2021/01/29 00:34:17;;;;;;;6.53;2.05;;;-3276.00;88.00;;;;;;5027747;28;20032;-66
2021/01/29 00:36:42;;;;;;;6.18;2.15;;;-3276.00;88.00;;;;;;5029763;28;20082;-66
2021/01/29 00:39:08;;;;;;;4.93;2.00;;;-3276.00;87.90;;;;;;5029648;28;20083;-66
2021/01/29 00:41:34;;;;;;;3.15;1.83;;;-3276.00;87.80;;;;;;5031572;28;20040;-66
2021/01/29 00:43:59;;;;;;;6.25;1.90;;;-3276.00;88.00;;;;;;5029432;28;20037;-66
2021/01/29 00:46:25;;;;;;;3.88;1.73;;;-3276.00;88.20;;;;;;5027524;28;20521;-67
2021/01/29 00:48:51;;;;;;;6.00;2.08;;;-3276.00;87.80;;;;;;5029802;28;20075;-66
2021/01/29 00:51:16;;;;;;;4.18;1.73;;;-3276.00;87.80;;;;;;5029724;28;20049;-66
2021/01/29 00:53:43;;;;;;;8.00;1.67;;;-3276.00;87.90;;;;;;5029263;28;20034;-66
2021/01/29 00:56:09;;;;;;;3.65;1.85;;;-3276.00;88.00;;;;;;5029159;28;20518;-67
2021/01/29 00:58:35;;;;;;;5.40;1.65;;;-3276.00;88.00;;;;;;5028877;28;20075;-67
2021/01/29 01:01:00;;;;;;;5.75;1.80;;;-3276.00;88.00;;;;;;5030753;28;20026;-66
2021/01/29 01:03:27;;;;;;;5.95;2.15;;;-3276.00;88.10;;;;;;5022804;28;20025;-67
2021/01/29 01:05:53;;;;;;;9.32;2.05;;;-3276.00;87.80;;;;;;5045074;28;20026;-67
2021/01/29 01:08:19;;;;;;;5.45;2.08;;;-3276.00;87.70;;;;;;5027686;22;20048;-65
2021/01/29 01:10:45;;;;;;;3.58;1.83;;;-3276.00;87.90;;;;;;5008477;28;20084;-67
2021/01/29 01:13:11;;;;;;;4.97;1.88;;;-3276.00;87.90;;;;;;5005936;28;20022;-67
2021/01/29 01:15:36;;;;;;;6.50;1.73;;;-3276.00;87.80;;;;;;5009801;28;20084;-67
2021/01/29 01:18:05;;;;;;;3.88;1.85;;;-3276.00;87.70;;;;;;4997823;28;20026;-66
2021/01/29 01:20:31;;;;;;;3.92;2.00;;;-3276.00;87.80;;;;;;4993658;28;20030;-67
2021/01/29 01:22:57;;;;;;;4.80;1.50;;;-3276.10;87.80;;;;;;4988781;28;20034;-67
2021/01/29 01:25:24;;;;;;;4.95;1.38;;;-3276.10;87.90;;;;;;4990518;28;20307;-66
2021/01/29 01:27:50;;;;;;;3.97;2.13;;;-3276.10;87.50;;;;;;4989823;28;20110;-67
2021/01/29 01:30:23;;;;;;;3.80;1.65;;;-3276.10;87.70;;;;;;4990530;28;20029;-67
2021/01/29 01:32:49;;;;;;;7.20;2.17;;;-3276.00;87.80;;;;;;4984188;28;20027;-67
2021/01/29 01:35:16;;;;;;;7.72;2.00;;;-3276.10;87.90;;;;;;4985644;28;20077;-67
2021/01/29 01:37:42;;;;;;;10.50;2.20;;;-3276.10;87.80;;;;;;4989425;28;20034;-67
2021/01/29 01:40:09;;;;;;;2.90;2.00;;;-3276.10;87.60;;;;;;4991110;28;20375;-67
2021/01/29 01:42:34;;;;;;;5.40;1.73;;;-3276.10;87.70;;;;;;4984527;28;20038;-67
2021/01/29 01:45:00;;;;;;;2.88;1.52;;;-3276.10;87.70;;;;;;4987919;28;20069;-66
2021/01/29 01:47:40;;;;;;;7.25;1.80;;;-3276.10;87.90;;;;;;4987575;28;20030;-66
2021/01/29 01:50:36;;;;;;;4.80;1.83;;;-3276.10;87.60;;;;;;4990411;28;20046;-66
2021/01/29 01:53:05;;;;;;;6.10;1.80;;;-3276.10;87.50;;;;;;4987270;28;20412;-67
2021/01/29 01:55:37;;;;;;;2.30;1.40;;;-3276.10;87.50;;;;;;4991353;28;20033;-67
2021/01/29 01:58:04;;;;;;;4.28;1.60;;;-3276.10;87.60;;;;;;4987293;28;20110;-67
2021/01/29 02:00:31;;;;;;;3.97;1.52;;;-3276.00;87.60;;;;;;4990047;28;20022;-67
2021/01/29 02:03:02;;;;;;;4.93;1.98;;;-3276.10;87.20;;;;;;4987848;28;20546;-67
2021/01/29 02:05:36;;;;;;;;;;;-3276.10;87.40;;;;;;4988170;28;20379;-65
2021/01/29 02:08:05;;;;;;;5.22;1.70;;;-3276.10;87.60;;;;;;4976937;28;19917;-67
2021/01/29 02:10:32;;;;;;;5.60;1.52;;;-3276.10;87.30;;;;;;4989446;28;20399;-67
2021/01/29 02:12:58;;;;;;;3.47;1.33;;;-3276.10;87.20;;;;;;4985891;28;20035;-67
2021/01/29 02:15:28;;;;;;;5.90;1.13;;;-3276.10;86.90;;;;;;4990573;28;20574;-67
2021/01/29 02:18:36;;;;;;;1.57;1.10;;;-3276.10;87.00;;;;;;4975158;28;20535;-66
2021/01/29 02:21:21;;;;;;;4.88;1.45;;;-3276.10;87.00;;;;;;4990574;28;20030;-67
2021/01/29 02:24:17;;;;;;;1.83;1.30;;;-3276.10;87.10;;;;;;4979090;28;20030;-68
2021/01/29 02:26:45;;;;;;;8.68;1.50;;;-3276.20;86.80;;;;;;4985611;28;20084;-67
2021/01/29 02:29:23;;;;;;;5.75;1.20;;;-3276.10;86.90;;;;;;4989583;28;20081;-67
2021/01/29 02:32:32;;;;;;;2.22;1.17;;;-3276.10;86.60;;;;;;4989436;28;20030;-67
2021/01/29 02:35:19;;;;;;;2.03;1.17;;;-3276.10;86.70;;;;;;4983787;28;20030;-67
2021/01/29 02:37:59;;;;;;;1.75;1.20;;;-3276.20;86.80;;;;;;4988808;28;20034;-67
2021/01/29 02:40:54;;;;;;;3.35;1.33;;;-3276.20;86.60;;;;;;4989661;28;20076;-67
2021/01/29 02:43:25;;;;;;;8.88;1.40;;;-3276.20;86.70;;;;;;4975050;28;20529;-67
2021/01/29 02:46:25;;;;;;;2.53;1.30;;;-3276.10;86.30;;;;;;4989856;28;20130;-66
2021/01/29 02:49:11;;;;;;;4.63;1.30;;;-3276.20;86.50;;;;;;4986533;28;20034;-66
2021/01/29 02:52:02;;;;;;;6.63;1.50;;;-3276.20;86.50;;;;;;4987891;28;20030;-67
2021/01/29 02:54:48;;;;;;;2.27;1.27;;;-3276.20;86.30;;;;;;4989038;28;20022;-67
2021/01/29 02:57:23;;;;;;;4.93;1.20;;;-3276.20;86.20;;;;;;4987815;28;20334;-65
2021/01/29 03:00:04;;;;;;;3.88;1.10;;;-3276.20;86.10;;;;;;4988045;28;20104;-64
2021/01/29 03:02:42;;;;;;;2.25;1.10;;;-3276.20;86.10;;;;;;4989044;28;20426;-64
2021/01/29 03:05:39;;;;;;;2.47;1.10;;;-3276.20;86.40;;;;;;4984445;28;20034;-64
2021/01/29 03:08:22;;;;;;;1.58;1.00;;;-3276.20;85.90;;;;;;4987596;28;20062;-64
2021/01/29 03:10:57;;;;;;;5.18;1.52;;;-3276.20;85.90;;;;;;4975854;28;20081;-64
2021/01/29 03:13:34;;;;;;;2.80;1.15;;;-3276.20;85.80;;;;;;4980824;28;20054;-64
2021/01/29 03:16:23;;;;;;;3.35;1.20;;;-3276.20;85.60;;;;;;4990042;28;20091;-66
2021/01/29 03:19:14;;;;;;;2.55;1.50;;;-3276.20;85.90;;;;;;4990597;28;20137;-67
2021/01/29 03:21:44;;;;;;;;;;;-3276.20;85.60;;;;;;4989284;28;20455;-67
2021/01/29 03:24:34;;;;;;;5.03;1.50;;;-3276.30;85.60;;;;;;4986110;28;20000;-67
2021/01/29 03:27:06;;;;;;;5.75;1.63;;;-3276.30;85.80;;;;;;4989941;28;20027;-67
2021/01/29 03:29:39;;;;;;;3.88;1.40;;;-3276.20;85.90;;;;;;4987995;28;20053;-66
2021/01/29 03:32:06;;;;;;;3.97;1.35;;;-3276.20;85.60;;;;;;4990028;28;20471;-67
2021/01/29 03:35:27;;;;;;;3.25;1.10;;;-3276.20;85.40;;;;;;4984887;28;20085;-65
2021/01/29 03:38:01;;;;;;;3.10;1.13;;;-3276.30;85.50;;;;;;4940722;29;20040;-66
2021/01/29 03:40:27;;;;;;;3.42;1.00;;;-3276.20;85.30;;;;;;4983297;28;20077;-67
2021/01/29 03:43:07;;;;;;;3.33;1.10;;;-3276.30;85.20;;;;;;4987351;28;20061;-65
2021/01/29 03:45:48;;;;;;;1.90;1.00;;;-3276.30;85.50;;;;;;4986755;28;20030;-67
2021/01/29 03:48:13;;;;;;;;;;;-3276.30;85.00;;;;;;4977813;28;20110;-66
2021/01/29 03:51:05;;;;;;;3.28;1.23;;;-3276.30;85.20;;;;;;5004363;28;20402;-67
2021/01/29 03:53:51;;;;;;;2.78;1.13;;;-3276.20;85.10;;;;;;4983515;28;20025;-67
2021/01/29 03:56:17;;;;;;;2.70;1.13;;;-3276.20;85.00;;;;;;4992448;28;20062;-66
2021/01/29 03:59:03;;;;;;;3.42;1.33;;;-3276.20;85.10;;;;;;5001907;28;20577;-66
2021/01/29 04:01:54;;;;;;;2.28;1.20;;;-3276.30;84.80;;;;;;4992490;28;20038;-66
2021/01/29 04:04:32;;;;;;;6.88;1.60;;;-3276.30;85.00;;;;;;4987360;28;20065;-67
2021/01/29 04:07:13;;;;;;;2.28;1.15;;;-3276.30;84.60;;;;;;4990707;28;20034;-66
2021/01/29 04:09:57;;;;;;;3.08;1.00;;;-3276.30;84.80;;;;;;4984504;28;20518;-67
2021/01/29 04:12:50;;;;;;;3.58;1.30;;;-3276.20;84.60;;;;;;4989580;28;20034;-66
2021/01/29 04:15:23;;;;;;;2.35;0.98;;;-3276.30;84.60;;;;;;4987630;28;20040;-67
2021/01/29 04:18:09;;;;;;;5.28;1.52;;;-3276.20;84.70;;;;;;4989235;28;20030;-66
2021/01/29 04:20:41;;;;;;;3.33;1.30;;;-3276.20;84.60;;;;;;4991733;28;20030;-66
2021/01/29 04:23:12;;;;;;;4.60;1.33;;;-3276.20;84.30;;;;;;4989816;28;20165;-66
2021/01/29 04:25:44;;;;;;;2.60;1.40;;;-3276.20;85.00;;;;;;4990008;28;20113;-67
2021/01/29 04:28:17;;;;;;;3.97;1.38;;;-3276.20;84.50;;;;;;4990659;28;20026;-66
2021/01/29 04:30:47;;;;;;;3.47;1.50;;;-3276.30;84.60;;;;;;4993282;28;20483;-67
2021/01/29 04:33:20;;;;;;;3.03;1.33;;;-3276.20;84.50;;;;;;4989670;28;20066;-65
2021/01/29 04:35:47;;;;;;;5.40;1.38;;;-3276.20;84.40;;;;;;4989592;28;20054;-67
2021/01/29 04:38:35;;;;;;;3.13;1.23;;;-3276.20;84.30;;;;;;4991520;28;20189;-65
2021/01/29 04:41:22;;;;;;;5.70;1.60;;;-3276.20;84.20;;;;;;4992699;28;20538;-66
2021/01/29 04:43:54;;;;;;;2.63;1.42;;;-3276.20;84.10;;;;;;4991761;28;20038;-67
2021/01/29 04:46:39;;;;;;;5.13;1.50;;;-3276.20;84.30;;;;;;4991320;28;20390;-67
2021/01/29 04:49:22;;;;;;;5.07;2.17;;;-3276.30;84.70;;;;;;4994053;28;20030;-66
2021/01/29 04:52:25;;;;;;;1.27;1.13;;;-3276.30;84.20;;;;;;4981062;28;20133;-66
2021/01/29 04:55:28;;;;;;;7.60;1.48;;;-3276.20;84.30;;;;;;4989326;28;20022;-66
2021/01/29 04:58:00;;;;;;;6.75;1.42;;;-3276.30;84.40;;;;;;4987357;28;20400;-65
2021/01/29 05:00:47;;;;;;;4.18;1.50;;;-3276.20;84.60;;;;;;4992439;28;20026;-66
2021/01/29 05:03:41;;;;;;;2.20;1.25;;;-3276.20;84.80;;;;;;4993923;28;20034;-66
2021/01/29 05:06:12;;;;;;;1.98;1.35;;;-3276.20;84.30;;;;;;4990042;28;20042;-67
2021/01/29 05:08:41;;;;;;;2.35;1.25;;;-3276.20;84.60;;;;;;4989675;28;20034;-67
2021/01/29 05:11:25;;;;;;;4.82;1.52;;;-3276.20;84.60;;;;;;4991102;28;20029;-67
2021/01/29 05:14:11;;;;;;;1.92;1.08;;;-3276.30;84.50;;;;;;4990580;28;20022;-67
2021/01/29 05:16:52;;;;;;;3.83;1.40;;;-3276.30;84.20;;;;;;4992153;28;20026;-67
2021/01/29 05:19:36;;;;;;;2.95;1.25;;;-3276.30;84.10;;;;;;4991492;28;20084;-67
2021/01/29 05:22:23;;;;;;;2.35;1.42;;;-3276.30;84.10;;;;;;4992126;28;20690;-67
2021/01/29 05:25:06;;;;;;;4.70;1.40;;;-3276.30;83.90;;;;;;4990543;28;20045;-67
2021/01/29 05:28:08;;;;;;;6.20;1.80;;;-3276.30;83.70;;;;;;4991793;28;20491;-66
2021/01/29 05:31:04;;;;;;;2.50;1.27;;;-3276.30;83.70;;;;;;4972134;28;20042;-66
2021/01/29 05:33:40;;;;;;;3.30;1.40;;;-3276.30;83.60;;;;;;4974567;28;20587;-67
2021/01/29 05:36:46;;;;;;;2.97;1.20;;;-3276.30;83.70;;;;;;4986558;28;20030;-67
2021/01/29 05:39:21;;;;;;;5.40;1.40;;;-3276.20;83.10;;;;;;4989822;28;20047;-66
2021/01/29 05:42:01;;;;;;;2.88;1.10;;;-3276.30;83.70;;;;;;4989001;28;20045;-67
2021/01/29 05:44:49;;;;;;;2.72;1.58;;;-3276.30;83.20;;;;;;4990958;28;20089;-66
2021/01/29 05:47:48;;;;;;;2.60;1.05;;;-3276.20;83.40;;;;;;4984605;28;20665;-67
2021/01/29 05:50:31;;;;;;;4.30;1.60;;;-3276.20;82.90;;;;;;4988406;28;20504;-66
2021/01/29 05:53:03;;;;;;;3.55;1.60;;;-3276.30;82.90;;;;;;4985099;28;20030;-66
2021/01/29 05:55:59;;;;;;;3.90;1.50;;;-3276.20;82.80;;;;;;4989391;28;20027;-66
2021/01/29 05:58:54;;;;;;;2.42;1.38;;;-3276.20;82.40;;;;;;4989630;28;20041;-66
2021/01/29 06:01:33;;;;;;;2.35;1.30;;;-3276.30;82.70;;;;;;4978650;28;20101;-67
2021/01/29 06:03:59;;;;;;;3.25;1.45;;;-3276.30;82.90;;;;;;4988292;28;20312;-67
2021/01/29 06:06:43;;;;;;;4.53;1.70;;;-3276.30;82.60;;;;;;4990961;28;20034;-67
2021/01/29 06:09:09;;;;;;;4.25;1.48;;;-3276.30;83.10;;;;;;4987614;28;20431;-67
2021/01/29 06:11:56;;;;;;;3.58;1.55;;;-3276.30;83.10;;;;;;4978666;28;20029;-66
2021/01/29 06:14:38;;;;;;;3.85;1.60;;;-3276.30;83.00;;;;;;4966513;28;20047;-65
2021/01/29 06:17:22;;;;;;;4.93;1.77;;;-3276.30;83.60;;;;;;4964854;28;20034;-66
2021/01/29 06:20:08;;;;;;;3.03;1.25;;;-3276.30;83.30;;;;;;4965942;28;20038;-67
2021/01/29 06:22:52;;;;;;;3.25;1.35;;;-3276.30;83.70;;;;;;4928268;28;20511;-67
2021/01/29 06:25:33;;;;;;;3.95;1.33;;;-3276.30;83.30;;;;;;4977433;28;20030;-67
2021/01/29 06:28:07;;;;;;;2.97;1.40;;;-3276.20;83.20;;;;;;5001404;28;20518;-67
2021/01/29 06:31:14;;;;;;;5.82;1.40;;;-3276.20;83.30;;;;;;5027414;28;20482;-66
2021/01/29 06:33:56;;;;;;;5.90;1.60;;;-3276.20;83.50;;;;;;5026547;28;20044;-66
2021/01/29 06:36:59;;;;;;;4.82;1.60;;;-3276.30;83.40;;;;;;5027956;28;20052;-66
2021/01/29 06:39:44;;;;;;;5.03;1.25;;;-3276.30;83.80;;;;;;5023516;28;20490;-66
2021/01/29 06:42:09;;;;;;;3.13;1.25;;;-3276.20;83.30;;;;;;5023603;28;20088;-67
2021/01/29 06:44:43;;;;;;;2.40;1.10;;;-3276.20;83.00;;;;;;5031401;28;20029;-66
2021/01/29 06:47:15;;;;;;;2.88;1.15;;;-3276.30;83.40;;;;;;5024247;28;20122;-66
2021/01/29 06:50:00;;;;;;;3.80;1.30;;;-3276.20;83.60;;;;;;5028369;28;20025;-67
2021/01/29 06:53:05;;;;;;;5.93;1.02;;;-3276.30;82.90;;;;;;5027611;28;20029;-67
2021/01/29 06:55:39;;;;;;;3.35;1.25;;;-3276.30;83.10;;;;;;5022889;28;20556;-67
2021/01/29 06:58:42;;;;;;;3.75;1.20;;;-3276.20;83.20;;;;;;5026046;28;20085;-67
2021/01/29 07:01:19;;;;;;;3.03;1.40;;;-3276.30;83.00;;;;;;5026613;28;20059;-67
2021/01/29 07:03:54;;;;;;;2.92;1.27;;;-3276.30;82.70;;;;;;5024417;28;20311;-67
2021/01/29 07:06:48;;;;;;;3.33;1.25;;;-3276.20;82.30;;;;;;5029444;28;20025;-67
2021/01/29 07:09:52;;;;;;;6.05;1.38;;;-3276.30;82.70;;;;;;5063897;22;20496;-66
2021/01/29 07:12:52;;;;;;;4.15;1.48;;;-3276.20;82.20;;;;;;4948328;29;20408;-67
2021/01/29 07:15:39;;;;;;;3.90;1.05;;;-3276.20;82.60;;;;;;5046457;28;20021;-66
2021/01/29 07:18:27;;;;;;;3.95;1.25;;;-3276.20;81.90;;;;;;5040942;28;20061;-67
2021/01/29 07:21:00;;;;;;;2.92;1.20;;;-3276.20;82.10;;;;;;5036712;28;20045;-67
2021/01/29 07:23:39;;;;;;;1.83;0.93;;;-3276.20;82.20;;;;;;5029085;28;20233;-67
2021/01/29 07:26:21;;;;;;;3.78;1.30;;;-3276.20;82.10;;;;;;5034136;28;20128;-68
2021/01/29 07:29:17;;;;;;;4.35;1.60;;;-3276.30;81.90;;;;;;5029451;28;20025;-67
2021/01/29 07:32:01;;;;;;;2.10;1.02;;;-3276.30;81.60;;;;;;5029798;28;20505;-67
2021/01/29 07:35:04;;;;;;;4.57;0.98;;;-3276.30;82.10;;;;;;5031109;28;20080;-67
2021/01/29 07:37:38;;;;;;;2.80;1.13;;;-3276.30;81.70;;;;;;5017300;28;20505;-67
2021/01/29 07:40:12;;;;;;;3.90;1.67;;;-3276.30;81.80;;;;;;5048210;28;20039;-67
2021/01/29 07:43:15;;;;;;;1.88;1.30;;;-3276.30;81.60;;;;;;5046575;28;20108;-67
2021/01/29 07:45:43;;;;;;;4.20;1.10;;;-3276.30;81.90;;;;;;5037375;28;20033;-67
2021/01/29 07:48:46;;;;;;;2.33;0.95;;;-3276.30;81.40;;;;;;5044437;28;20025;-67
2021/01/29 07:51:35;;;;;;;5.80;1.35;;;-3276.30;81.30;;;;;;5032992;28;20091;-68
2021/01/29 07:54:06;;;;;;;5.13;1.38;;;-3276.40;81.90;;;;;;5034396;28;20021;-67
2021/01/29 07:57:02;;;;;;;1.90;1.10;;;-3276.40;81.40;;;;;;5026903;28;20505;-68
2021/01/29 07:59:57;;;;;;;3.85;1.23;;;-3276.40;81.60;;;;;;5028393;28;20371;-67
2021/01/29 08:03:09;;;;;;;1.20;0.85;;;-3276.40;81.30;;;;;;5033250;28;20068;-68
2021/01/29 08:05:53;;;;;;;2.28;1.00;;;-3276.40;81.00;;;;;;5033326;28;20496;-68
2021/01/29 08:08:27;;;;;;;1.80;1.10;;;-3276.40;81.50;;;;;;5030020;28;20468;-67
2021/01/29 08:10:56;;;;;;;4.43;1.50;;;-3276.40;81.10;;;;;;5029237;28;20041;-67
2021/01/29 08:13:43;;;;;;;3.58;1.30;;;-3276.50;81.10;;;;;;5030763;28;20033;-67
2021/01/29 08:16:46;;;;;;;3.15;1.23;;;-3276.50;81.20;;;;;;5027905;28;20033;-68
2021/01/29 08:19:52;;;;;;;3.47;1.40;;;-3276.50;80.90;;;;;;5030027;28;20025;-67
2021/01/29 08:22:46;;;;;;;2.90;1.05;;;-3276.50;80.90;;;;;;5031940;28;20072;-67
2021/01/29 08:25:33;;;;;;;3.13;1.23;;;-3276.50;80.70;;;;;;5029068;28;20508;-67
2021/01/29 08:28:30;;;;;;;5.85;1.63;;;-3276.50;80.80;;;;;;5031232;28;20532;-68
2021/01/29 08:31:14;;;;;;;2.47;1.30;;;-3276.60;81.10;;;;;;5037167;28;20067;-67
2021/01/29 08:34:15;;;;;;;3.53;1.20;;;-3276.60;80.70;;;;;;5029313;28;20036;-68
2021/01/29 08:37:11;;;;;;;2.50;0.90;;;-3276.60;80.70;;;;;;5036352;28;20033;-68
2021/01/29 08:39:50;;;;;;;3.25;1.02;;;-3276.60;79.70;;;;;;5033924;28;20034;-68
2021/01/29 08:42:43;;;;;;;4.38;1.33;;;-3276.70;80.50;;;;;;5035308;28;20052;-67
2021/01/29 08:45:36;;;;;;;6.13;1.40;;;-3276.70;80.40;;;;;;5033275;28;20033;-68
2021/01/29 08:48:33;;;;;;;6.00;1.20;;;-3276.70;80.00;;;;;;5035970;28;20036;-68
2021/01/29 08:51:23;;;;;;;2.88;1.08;;;0.00;80.50;;;;;;5034268;28;20088;-68
2021/01/29 08:54:03;;;;;;;2.97;1.40;;;0.00;80.30;;;;;;5035817;28;20079;-67
2021/01/29 08:56:50;;;;;;;2.80;1.45;;;0.00;80.40;;;;;;5030700;28;20580;-67
2021/01/29 08:59:18;;;;;;;6.93;1.60;;;0.00;80.30;;;;;;5032823;28;20133;-68
2021/01/29 09:01:52;;;;;;;4.75;1.45;;;0.00;80.00;;;;;;5034570;28;20033;-67
2021/01/29 09:04:39;;;;;;;3.85;1.45;;;0.00;80.00;;;;;;5031386;28;20120;-68
2021/01/29 09:07:27;;;;;;;6.03;1.85;;;0.00;80.30;;;;;;5014542;28;20044;-67
2021/01/29 09:10:05;;;;;;;5.13;1.70;;;0.00;80.40;;;;;;5043390;28;20063;-68
2021/01/29 09:12:32;;;;;;;3.00;1.50;;;0.00;80.20;;;;;;5043347;28;20025;-66
2021/01/29 09:15:36;;;;;;;4.28;1.60;;;0.10;80.90;;;;;;5045014;28;20520;-67
2021/01/29 09:18:17;;;;;;;5.28;2.67;;;0.00;80.50;;;;;;5048331;28;20366;-67
2021/01/29 09:20:49;;;;;;;5.28;2.13;;;0.10;80.70;;;;;;5039335;28;20043;-67
2021/01/29 09:23:28;;;;;;;4.18;2.08;;;0.10;80.70;;;;;;5046288;28;20021;-66
2021/01/29 09:26:04;;;;;;;7.40;2.63;;;0.10;80.70;;;;;;5043592;28;20481;-66
2021/01/29 09:28:36;;;;;;;4.40;2.22;;;0.10;80.80;;;;;;5038643;28;20021;-66
2021/01/29 09:31:21;;;;;;;5.38;2.25;;;0.10;81.30;;;;;;5040978;28;20155;-67
2021/01/29 09:33:59;;;;;;;7.35;2.55;;;0.10;82.20;;;;;;5045592;28;20056;-66
2021/01/29 09:36:33;;;;;;;4.82;2.40;;;0.00;83.20;;;;;;5042636;28;20030;-66
2021/01/29 09:39:12;;;;;;;5.20;2.60;;;0.00;84.20;;;;;;5042585;28;20037;-67
2021/01/29 09:41:56;;;;;;;6.47;2.70;;;0.00;84.40;;;;;;5046680;28;20056;-66
2021/01/29 09:44:26;;;;;;;6.80;3.10;;;0.00;85.20;;;;;;5045325;28;20040;-66
2021/01/29 09:46:55;;;;;;;5.78;2.38;;;0.00;85.50;;;;;;5042729;28;20025;-66
2021/01/29 09:49:30;;;;;;;5.93;2.72;;;-3276.70;85.50;;;;;;5045907;28;20504;-66
2021/01/29 09:52:26;;;;;;;4.00;2.45;;;-3276.70;85.90;;;;;;5039714;28;20126;-66
2021/01/29 09:55:08;;;;;;;5.72;2.92;;;-3276.70;86.20;;;;;;5042879;28;20021;-66
2021/01/29 09:58:01;;;;;;;6.90;2.53;;;-3276.70;86.70;;;;;;5053064;28;20033;-68
2021/01/29 10:00:32;;;;;;;4.55;2.50;;;-3276.60;86.90;;;;;;5031389;28;20040;-66
2021/01/29 10:03:06;;;;;;;5.85;2.80;;;-3276.60;87.40;;;;;;5047721;28;20048;-66
2021/01/29 10:05:46;;;;;;;6.88;2.75;;;-3276.50;87.80;;;;;;5036380;28;20045;-66
2021/01/29 10:08:23;;;;;;;8.85;2.38;;;-3276.50;88.20;;;;;;5029404;28;20040;-67
2021/01/29 10:10:58;;;;;;;5.45;2.40;;;-3276.50;87.90;;;;;;5028439;28;20029;-66
2021/01/29 10:13:56;;;;;;;5.93;3.03;;;-3276.50;88.60;;;;;;5017697;28;20433;-67
2021/01/29 10:16:28;;;;;;;5.22;2.20;;;-3276.50;89.10;;;;;;5031807;28;20250;-67
2021/01/29 10:19:15;;;;;;;5.03;2.60;;;-3276.60;89.00;;;;;;5037266;28;20470;-66
2021/01/29 10:21:59;;;;;;;6.80;2.58;;;-3276.50;89.00;;;;;;5032212;28;20082;-66
2021/01/29 10:24:42;;;;;;;4.88;2.70;;;-3276.50;89.20;;;;;;5033501;28;20075;-66
2021/01/29 10:27:24;;;;;;;5.45;2.80;;;-3276.50;89.20;;;;;;5031456;28;20033;-66
2021/01/29 10:30:15;;;;;;;6.72;2.65;;;-3276.50;89.30;;;;;;5011638;28;20033;-66
2021/01/29 10:32:42;;;;;;;3.73;2.50;;;-3276.40;89.30;;;;;;5032388;28;20044;-65
2021/01/29 10:35:26;;;;;;;5.22;2.45;;;-3276.30;90.00;;;;;;5034495;28;20037;-66
2021/01/29 10:38:05;;;;;;;7.32;2.72;;;-3276.40;90.40;;;;;;5049418;28;20167;-66
2021/01/29 10:40:35;;;;;;;2.55;1.85;;;-3276.50;90.50;;;;;;5039841;28;20421;-66
2021/01/29 10:43:26;;;;;;;6.40;2.90;;;-3276.40;90.10;;;;;;5047118;28;20057;-65
2021/01/29 10:46:07;;;;;;;4.13;1.92;;;-3276.40;90.20;;;;;;5048463;28;20037;-66
2021/01/29 10:49:05;;;;;;;5.03;1.95;;;-3276.30;89.90;;;;;;5042637;28;20056;-66
2021/01/29 10:51:57;;;;;;;4.75;2.30;;;-3276.30;90.00;;;;;;5038966;28;20424;-65
2021/01/29 10:54:24;;;;;;;9.80;2.95;;;-3276.40;90.60;;;;;;5042611;28;20025;-66
2021/01/29 10:57:17;;;;;;;6.00;2.90;;;-3276.40;90.70;;;;;;5029182;28;20451;-65
2021/01/29 11:00:06;;;;;;;3.75;2.10;;;-3276.40;90.50;;;;;;5042420;28;20029;-65
2021/01/29 11:02:42;;;;;;;5.05;2.38;;;-3276.30;90.70;;;;;;5048301;28;20024;-65
2021/01/29 11:05:21;;;;;;;5.32;2.20;;;-3276.20;91.30;;;;;;5048719;28;20029;-65
2021/01/29 11:07:50;;;;;;;4.70;2.22;;;-3276.30;91.60;;;;;;5047376;28;20111;-65
2021/01/29 11:10:22;;;;;;;5.53;2.33;;;-3276.30;91.30;;;;;;5025713;28;20017;-66
2021/01/29 11:12:59;;;;;;;3.03;1.48;;;-3276.30;91.40;;;;;;5055689;28;20604;-66
2021/01/29 11:15:42;;;;;;;4.53;2.20;;;-3276.20;91.20;;;;;;5037534;28;20486;-66
2021/01/29 11:18:18;;;;;;;5.50;2.35;;;-3276.20;91.60;;;;;;5047207;28;20040;-66
2021/01/29 11:20:45;;;;;;;3.95;2.20;;;-3276.20;91.70;;;;;;5038365;28;20035;-66
2021/01/29 11:23:55;;;;;;;4.65;2.30;;;-3276.20;91.90;;;;;;5044880;28;20044;-66
2021/01/29 11:26:32;;;;;;;3.17;1.90;;;-3276.30;91.80;;;;;;5014281;28;20043;-66
2021/01/29 11:29:31;;;;;;;4.93;2.20;;;-3276.30;91.40;;;;;;5043693;28;20021;-66
2021/01/29 11:32:24;;;;;;;4.53;2.03;;;-3276.30;91.50;;;;;;5045715;28;20028;-66
2021/01/29 11:35:05;;;;;;;5.53;1.88;;;-3276.30;91.30;;;;;;5051544;28;20033;-66
2021/01/29 11:37:38;;;;;;;2.50;1.65;;;-3276.40;91.00;;;;;;5033006;28;20065;-66
2021/01/29 11:40:21;;;;;;;5.05;1.90;;;-3276.40;91.70;;;;;;5041456;28;20112;-65
2021/01/29 11:43:08;;;;;;;3.38;1.63;;;-3276.40;91.10;;;;;;5043000;28;20032;-66
2021/01/29 11:45:52;;;;;;;2.95;1.40;;;-3276.40;90.40;;;;;;5044118;28;20382;-66
2021/01/29 11:48:31;;;;;;;3.42;1.27;;;-3276.40;90.30;;;;;;5035480;28;20036;-65
2021/01/29 11:51:10;;;;;;;4.50;1.67;;;-3276.30;90.50;;;;;;5018399;28;20029;-66
2021/01/29 11:53:45;;;;;;;1.63;1.10;;;-3276.30;90.70;;;;;;5040282;28;20033;-66
2021/01/29 11:56:34;;;;;;;4.38;1.42;;;-3276.40;90.90;;;;;;5047702;28;20058;-66
2021/01/29 11:59:06;;;;;;;2.88;1.20;;;-3276.20;91.30;;;;;;5041010;28;20048;-66
2021/01/29 12:01:38;;;;;;;3.28;1.52;;;-3276.10;91.40;;;;;;5034272;28;20029;-66
2021/01/29 12:04:31;;;;;;;2.00;0.95;;;-3276.20;92.10;;;;;;5034009;28;20033;-66
2021/01/29 12:07:27;;;;;;;2.55;1.10;;;-3276.10;92.10;;;;;;5044708;28;20663;-66
2021/01/29 12:10:08;;;;;;;3.80;1.20;;;-3276.10;92.70;;;;;;5046441;28;20593;-65
2021/01/29 12:12:50;;;;;;;2.80;1.20;;;-3276.10;92.90;;;;;;5044571;28;20386;-66
2021/01/29 12:15:36;;;;;;;4.47;1.33;;;-3276.10;92.90;;;;;;5047555;28;20025;-66
2021/01/29 12:18:06;;;;;;;3.80;1.10;;;-3276.00;93.20;;;;;;5050594;28;20097;-66
2021/01/29 12:20:34;;;;;;;3.07;1.53;;;-3276.00;93.00;;;;;;5043724;28;20390;-66
2021/01/29 12:23:19;;;;;;;3.65;1.27;;;-3276.10;93.10;;;;;;5043224;28;20029;-66
2021/01/29 12:25:53;;;;;;;1.95;1.00;;;-3276.10;92.90;;;;;;5040064;28;20501;-66
2021/01/29 12:28:29;;;;;;;1.70;1.02;;;-3276.00;92.70;;;;;;5061647;28;20028;-66
2021/01/29 12:31:02;;;;;;;5.40;1.30;;;-3276.00;92.90;;;;;;5050113;28;20025;-65
2021/01/29 12:33:30;;;;;;;2.47;1.15;;;-3276.00;93.00;;;;;;5049733;28;20044;-65
2021/01/29 12:36:00;;;;;;;3.08;1.27;;;-3275.90;93.20;;;;;;5044938;28;20032;-65
2021/01/29 12:38:42;;;;;;;2.47;1.15;;;-3276.00;93.60;;;;;;5040493;28;20025;-65
2021/01/29 12:41:35;;;;;;;1.42;1.20;;;-3276.00;93.50;;;;;;5053016;28;20032;-65
2021/01/29 12:44:32;;;;;;;2.00;1.25;;;-3275.90;92.90;;;;;;5060559;28;20453;-65
2021/01/29 12:47:16;;;;;;;4.70;2.05;;;-3275.90;93.20;;;;;;5051715;28;20103;-66
2021/01/29 12:50:26;;;;;;;3.47;1.70;;;-3275.90;93.20;;;;;;5053550;28;20055;-66
2021/01/29 12:52:59;;;;;;;2.75;1.40;;;-3275.80;93.00;;;;;;5023468;28;20041;-65
2021/01/29 12:55:37;;;;;;;2.40;1.50;;;-3276.00;93.30;;;;;;5065236;28;20037;-66
2021/01/29 12:58:09;;;;;;;4.93;1.50;;;-3276.00;93.00;;;;;;5053000;28;20094;-65
2021/01/29 13:00:40;;;;;;;4.35;1.60;;;-3276.00;92.80;;;;;;5048114;28;20123;-66
2021/01/29 13:03:08;;;;;;;3.92;1.88;;;-3276.00;92.80;;;;;;5033989;28;20022;-66
2021/01/29 13:05:48;;;;;;;3.03;1.65;;;-3276.00;92.80;;;;;;5050382;28;20256;-66
2021/01/29 13:08:32;;;;;;;3.88;1.63;;;-3276.00;92.60;;;;;;5058361;22;20601;-63
2021/01/29 13:11:24;;;;;;;2.70;1.40;;;-3276.10;92.60;;;;;;5043885;28;20036;-63
2021/01/29 13:14:24;;;;;;;2.47;1.50;;;-3276.10;92.40;;;;;;5042194;28;20263;-66
2021/01/29 13:17:26;;;;;;;2.00;1.35;;;-3276.20;91.90;;;;;;5044507;28;20140;-66
2021/01/29 13:20:11;;;;;;;4.38;1.60;;;-3276.10;92.00;;;;;;4986294;28;20041;-67
2021/01/29 13:22:43;;;;;;;2.88;1.30;;;-3276.20;91.90;;;;;;5025447;28;20045;-67
2021/01/29 13:25:08;;;;;;;4.60;1.35;;;-3276.20;91.90;;;;;;5019868;28;20082;-67